Time;durP1;ratioP1;P1;durP2;ratioP2;P2;SDS_P1;SDS_P2;PMS_P1;PMS_P2;Temp;Humidity;BMP_temperature;BMP_pressure;BME280_temperature;BME280_humidity;BME280_pressure;Samples;Min_cycle;Max_cycle;Signal;HPM_P1;HPM_P2
2023/09/16 00:00:17;;;;;;;35.03;22.05;;;22.40;99.90;;;;;;4887617;29;20187;-88
2023/09/16 00:02:43;;;;;;;25.42;22.45;;;22.40;99.90;;;;;;4869422;29;20063;-87
2023/09/16 00:05:09;;;;;;;29.83;22.83;;;22.30;99.90;;;;;;4885033;29;20059;-87
2023/09/16 00:07:42;;;;;;;27.55;22.10;;;22.30;99.90;;;;;;4884651;29;20031;-87
2023/09/16 00:10:09;;;;;;;28.33;22.48;;;22.30;99.90;;;;;;4900256;29;20493;-87
2023/09/16 00:12:35;;;;;;;31.27;22.17;;;22.20;99.90;;;;;;4884775;29;20033;-87
2023/09/16 00:15:01;;;;;;;27.58;21.98;;;22.20;99.90;;;;;;4884520;29;20036;-87
2023/09/16 00:17:28;;;;;;;25.83;21.92;;;22.20;99.90;;;;;;4884584;29;20039;-87
2023/09/16 00:19:58;;;;;;;25.65;21.70;;;22.20;99.90;;;;;;4900270;29;20044;-87
2023/09/16 00:22:25;;;;;;;28.10;22.17;;;22.20;99.90;;;;;;4900058;29;20037;-86
2023/09/16 00:24:52;;;;;;;29.35;22.02;;;22.20;99.90;;;;;;4884498;29;20039;-87
2023/09/16 00:27:18;;;;;;;36.92;22.05;;;22.20;99.90;;;;;;4900195;29;20032;-88
2023/09/16 00:29:45;;;;;;;27.40;21.65;;;22.20;99.90;;;;;;4884640;29;20488;-87
2023/09/16 00:32:12;;;;;;;27.92;20.42;;;22.20;99.90;;;;;;4884420;29;20033;-87
2023/09/16 00:34:38;;;;;;;27.80;22.25;;;22.20;99.90;;;;;;4884258;29;20032;-87
2023/09/16 00:37:05;;;;;;;23.13;20.67;;;22.20;99.90;;;;;;4884565;29;20060;-87
2023/09/16 00:39:32;;;;;;;25.95;22.50;;;22.10;99.90;;;;;;4868877;29;20044;-87
2023/09/16 00:41:58;;;;;;;24.77;21.95;;;22.10;99.90;;;;;;4884140;29;20065;-87
2023/09/16 00:44:25;;;;;;;25.50;21.70;;;22.10;99.90;;;;;;4883967;29;20457;-87
2023/09/16 00:46:51;;;;;;;29.92;22.13;;;22.10;99.90;;;;;;4899812;29;20115;-87
2023/09/16 00:49:17;;;;;;;31.50;22.20;;;22.10;99.90;;;;;;4884107;29;20451;-87
2023/09/16 00:51:45;;;;;;;28.13;22.13;;;22.10;99.90;;;;;;4899773;29;20109;-86
2023/09/16 00:54:12;;;;;;;27.58;22.33;;;22.10;99.90;;;;;;4883514;29;20035;-87
2023/09/16 00:56:39;;;;;;;27.00;21.45;;;22.10;99.90;;;;;;4899710;29;20033;-87
2023/09/16 00:59:06;;;;;;;25.85;21.30;;;22.00;99.90;;;;;;4883820;29;20029;-87
2023/09/16 01:01:37;;;;;;;26.60;21.67;;;22.00;99.90;;;;;;4899629;29;20477;-87
2023/09/16 01:04:04;;;;;;;30.42;22.17;;;22.10;99.90;;;;;;4899424;29;20028;-87
2023/09/16 01:06:31;;;;;;;24.70;21.88;;;22.10;99.90;;;;;;4883546;29;20025;-87
2023/09/16 01:09:01;;;;;;;25.92;22.73;;;22.10;99.90;;;;;;4899399;29;20036;-87
2023/09/16 01:11:27;;;;;;;27.58;23.25;;;22.10;99.90;;;;;;4899187;29;20551;-87
2023/09/16 01:13:54;;;;;;;30.08;23.60;;;22.10;99.90;;;;;;4884190;29;20387;-88
2023/09/16 01:16:46;;;;;;;33.72;22.75;;;22.10;99.90;;;;;;4868067;29;20040;-87
2023/09/16 01:19:56;;;;;;;33.50;23.27;;;22.10;99.90;;;;;;4867920;29;20047;-87
2023/09/16 01:22:22;;;;;;;26.75;21.58;;;22.10;99.90;;;;;;4846378;29;20113;-87
2023/09/16 01:24:53;;;;;;;30.65;22.33;;;22.10;99.90;;;;;;4846541;29;20128;-87
2023/09/16 01:27:21;;;;;;;30.83;22.73;;;22.10;99.90;;;;;;4846367;29;20433;-87
2023/09/16 01:29:48;;;;;;;29.67;23.42;;;22.00;99.90;;;;;;4846406;29;20465;-87
2023/09/16 01:32:18;;;;;;;27.95;22.70;;;22.00;99.90;;;;;;4846196;29;20125;-87
2023/09/16 01:34:51;;;;;;;28.80;21.55;;;22.00;99.90;;;;;;4846281;29;20074;-87
2023/09/16 01:37:19;;;;;;;24.90;21.23;;;22.00;99.90;;;;;;4846167;29;20057;-87
2023/09/16 01:40:11;;;;;;;24.58;20.67;;;22.00;99.90;;;;;;4846293;29;20036;-88
2023/09/16 01:42:40;;;;;;;31.85;22.70;;;21.90;99.90;;;;;;4846314;29;20029;-87
2023/09/16 01:45:07;;;;;;;26.38;23.13;;;21.90;99.90;;;;;;4846014;29;20512;-87
2023/09/16 01:47:45;;;;;;;28.90;23.05;;;21.90;99.90;;;;;;4846071;29;20041;-87
2023/09/16 01:50:11;;;;;;;29.92;22.45;;;21.90;99.90;;;;;;4846266;29;20030;-87
2023/09/16 01:52:38;;;;;;;31.73;23.42;;;21.90;99.90;;;;;;4845942;29;20381;-87
2023/09/16 01:55:05;;;;;;;33.67;23.13;;;21.90;99.90;;;;;;4845693;29;20041;-86
2023/09/16 01:57:31;;;;;;;28.30;22.85;;;21.90;99.90;;;;;;4845824;29;20120;-86
2023/09/16 01:59:58;;;;;;;29.88;22.75;;;21.90;99.90;;;;;;4845735;29;20078;-86
2023/09/16 02:02:24;;;;;;;33.53;23.10;;;21.90;99.90;;;;;;4845758;29;20037;-87
2023/09/16 02:04:50;;;;;;;27.92;20.30;;;21.90;99.90;;;;;;4846125;29;20470;-87
2023/09/16 02:07:17;;;;;;;24.73;21.33;;;21.80;99.90;;;;;;4845225;29;20391;-87
2023/09/16 02:09:44;;;;;;;27.90;20.70;;;21.70;99.90;;;;;;4845601;29;20120;-87
2023/09/16 02:12:11;;;;;;;27.33;21.52;;;21.70;99.90;;;;;;4845573;29;20026;-87
2023/09/16 02:14:41;;;;;;;27.92;23.17;;;21.80;99.90;;;;;;4845569;29;20037;-86
2023/09/16 02:17:07;;;;;;;29.75;22.90;;;21.80;99.90;;;;;;4845533;29;20570;-87
2023/09/16 02:19:34;;;;;;;27.75;21.90;;;21.80;99.90;;;;;;4850818;29;20056;-87
2023/09/16 02:22:01;;;;;;;30.05;22.10;;;21.80;99.90;;;;;;4867222;29;20044;-86
2023/09/16 02:24:28;;;;;;;29.85;21.77;;;21.80;99.90;;;;;;4873433;29;20059;-87
2023/09/16 02:26:55;;;;;;;27.52;22.38;;;21.80;99.90;;;;;;4848520;29;20081;-86
2023/09/16 02:29:21;;;;;;;25.45;20.83;;;21.70;99.90;;;;;;4848324;29;20032;-87
2023/09/16 02:31:49;;;;;;;30.38;22.38;;;21.80;99.90;;;;;;4848477;29;20116;-87
2023/09/16 02:34:15;;;;;;;26.70;22.08;;;21.80;99.90;;;;;;4863603;29;20036;-87
2023/09/16 02:36:42;;;;;;;31.05;21.67;;;21.80;99.90;;;;;;4848592;29;20124;-87
2023/09/16 02:39:09;;;;;;;32.17;23.05;;;21.80;99.90;;;;;;4863549;29;20089;-87
2023/09/16 02:41:36;;;;;;;29.00;21.77;;;22.00;99.90;;;;;;4869153;29;20093;-86
2023/09/16 02:44:03;;;;;;;29.23;22.25;;;22.00;99.90;;;;;;4863792;29;20112;-87
2023/09/16 02:46:29;;;;;;;28.67;23.13;;;22.10;99.90;;;;;;4863508;29;20121;-87
2023/09/16 02:49:01;;;;;;;29.38;21.40;;;22.10;99.90;;;;;;4863462;29;20056;-87
2023/09/16 02:51:28;;;;;;;25.67;20.13;;;22.10;99.90;;;;;;4863453;29;20483;-87
2023/09/16 02:53:55;;;;;;;30.17;19.67;;;22.10;99.90;;;;;;4864288;29;20061;-87
2023/09/16 02:56:21;;;;;;;30.92;21.25;;;22.10;99.90;;;;;;4863160;29;20146;-87
2023/09/16 02:58:53;;;;;;;29.83;21.08;;;22.10;99.90;;;;;;4863462;29;20052;-87
2023/09/16 03:01:19;;;;;;;28.80;20.67;;;22.10;99.90;;;;;;4863569;29;20033;-87
2023/09/16 03:03:46;;;;;;;28.10;19.95;;;22.20;99.90;;;;;;4863193;29;20029;-87
2023/09/16 03:06:13;;;;;;;27.35;20.90;;;22.20;99.90;;;;;;4863423;29;20064;-86
2023/09/16 03:08:42;;;;;;;30.48;20.70;;;22.20;99.90;;;;;;4863130;29;20025;-86
2023/09/16 03:11:09;;;;;;;29.95;20.40;;;22.20;99.90;;;;;;4863309;29;20033;-89
2023/09/16 03:13:38;;;;;;;28.67;21.10;;;22.20;99.90;;;;;;4863443;29;20451;-87
2023/09/16 03:16:23;;;;;;;28.52;19.90;;;22.20;99.90;;;;;;4863236;29;20051;-87
2023/09/16 03:18:54;;;;;;;31.15;21.63;;;22.20;99.90;;;;;;4863433;29;20033;-86
2023/09/16 03:21:25;;;;;;;36.75;20.23;;;22.20;99.90;;;;;;4863024;29;20499;-89
2023/09/16 03:23:57;;;;;;;25.83;19.95;;;22.20;99.90;;;;;;4863710;29;20041;-91
2023/09/16 03:26:23;;;;;;;32.10;20.88;;;22.10;99.90;;;;;;4863336;29;20029;-89
2023/09/16 03:28:54;;;;;;;33.03;22.02;;;22.00;99.90;;;;;;4862888;29;20036;-87
2023/09/16 03:31:26;;;;;;;29.88;21.85;;;22.00;99.90;;;;;;4863756;29;20033;-90
2023/09/16 03:33:54;;;;;;;28.48;21.55;;;21.90;99.90;;;;;;4863165;29;20033;-89
2023/09/16 03:36:22;;;;;;;32.28;20.90;;;21.80;99.90;;;;;;4862926;29;20511;-88
2023/09/16 03:38:50;;;;;;;28.17;20.73;;;21.80;99.90;;;;;;4863093;29;20037;-88
2023/09/16 03:41:17;;;;;;;27.33;20.30;;;21.90;99.90;;;;;;4862966;29;20048;-84
2023/09/16 03:43:53;;;;;;;27.67;21.23;;;21.80;99.90;;;;;;4863505;29;20056;-88
2023/09/16 03:46:23;;;;;;;27.02;20.58;;;21.90;99.90;;;;;;4863327;29;20060;-87
2023/09/16 03:48:57;;;;;;;28.85;20.45;;;21.80;99.90;;;;;;4862872;29;20040;-88
2023/09/16 03:51:28;;;;;;;26.42;19.52;;;21.80;99.90;;;;;;4862900;29;20120;-87
2023/09/16 03:54:03;;;;;;;26.52;19.05;;;21.80;99.90;;;;;;4863031;29;20033;-89
2023/09/16 03:56:30;;;;;;;22.10;18.13;;;21.80;99.90;;;;;;4862761;29;20041;-87
2023/09/16 03:58:57;;;;;;;30.08;21.13;;;21.80;99.90;;;;;;4862742;29;20080;-87
2023/09/16 04:01:26;;;;;;;30.52;21.23;;;21.80;99.90;;;;;;4862933;29;20044;-88
2023/09/16 04:03:54;;;;;;;30.13;21.23;;;21.80;99.90;;;;;;4862726;29;20025;-88
2023/09/16 04:06:21;;;;;;;32.17;21.50;;;21.70;99.90;;;;;;4862708;29;20040;-88
2023/09/16 04:08:48;;;;;;;31.20;21.65;;;21.70;99.90;;;;;;4862813;29;20482;-87
2023/09/16 04:11:15;;;;;;;38.05;21.83;;;21.60;99.90;;;;;;4862596;29;20025;-88
2023/09/16 04:13:43;;;;;;;33.08;21.17;;;21.60;99.90;;;;;;4863008;29;20351;-87
2023/09/16 04:16:10;;;;;;;27.17;21.52;;;21.50;99.90;;;;;;4864116;29;20040;-88
2023/09/16 04:18:37;;;;;;;31.92;21.23;;;21.50;99.90;;;;;;4865705;29;20553;-87
2023/09/16 04:21:06;;;;;;;30.45;21.90;;;21.40;99.90;;;;;;4865515;29;20052;-88
2023/09/16 04:23:36;;;;;;;30.70;21.42;;;21.50;99.90;;;;;;4865540;29;20033;-88
2023/09/16 04:26:08;;;;;;;32.13;21.33;;;21.40;99.90;;;;;;4866522;29;20036;-88
2023/09/16 04:28:35;;;;;;;28.70;22.30;;;21.50;99.90;;;;;;4865676;29;20029;-88
2023/09/16 04:31:04;;;;;;;27.67;21.60;;;21.50;99.90;;;;;;4868819;29;20032;-88
2023/09/16 04:33:38;;;;;;;36.38;23.15;;;21.50;99.90;;;;;;4869727;29;20367;-87
2023/09/16 04:36:06;;;;;;;30.88;22.05;;;21.50;99.90;;;;;;4869019;29;20048;-88
2023/09/16 04:38:33;;;;;;;29.90;21.70;;;21.50;99.90;;;;;;4869088;29;20029;-89
2023/09/16 04:41:01;;;;;;;35.88;22.25;;;21.50;99.90;;;;;;4868761;29;20096;-87
2023/09/16 04:43:28;;;;;;;29.85;20.58;;;21.60;99.90;;;;;;4869185;29;20032;-88
2023/09/16 04:45:55;;;;;;;28.52;20.13;;;21.70;99.90;;;;;;4868976;29;20448;-88
2023/09/16 04:48:31;;;;;;;33.17;20.83;;;21.80;99.90;;;;;;4870154;29;20029;-87
2023/09/16 04:50:58;;;;;;;27.95;20.30;;;21.90;99.90;;;;;;4884337;29;20513;-88
2023/09/16 04:53:24;;;;;;;32.47;21.13;;;21.90;99.90;;;;;;4868499;29;20474;-88
2023/09/16 04:56:00;;;;;;;34.53;20.42;;;22.00;99.90;;;;;;4868573;29;20048;-88
2023/09/16 04:58:27;;;;;;;26.75;19.65;;;22.10;99.90;;;;;;4868746;29;20025;-88
2023/09/16 05:00:54;;;;;;;32.17;19.77;;;22.20;99.90;;;;;;4868610;29;20040;-88
2023/09/16 05:03:20;;;;;;;31.10;19.15;;;22.30;99.90;;;;;;4868490;29;20028;-89
2023/09/16 05:05:47;;;;;;;24.52;18.77;;;22.30;99.90;;;;;;4868382;29;20036;-87
2023/09/16 05:08:13;;;;;;;26.52;19.13;;;22.30;99.90;;;;;;4868554;29;20121;-89
2023/09/16 05:10:40;;;;;;;28.60;19.58;;;22.40;99.90;;;;;;4868508;29;20352;-89
2023/09/16 05:13:06;;;;;;;26.23;18.55;;;22.40;99.90;;;;;;4868525;29;20093;-87
2023/09/16 05:15:34;;;;;;;25.02;17.77;;;22.50;99.90;;;;;;4868369;29;20136;-88
2023/09/16 05:18:00;;;;;;;21.02;16.20;;;22.60;99.90;;;;;;4883794;29;20029;-88
2023/09/16 05:20:28;;;;;;;25.17;18.13;;;22.80;99.90;;;;;;4865662;29;20053;-88
2023/09/16 05:22:54;;;;;;;23.23;17.02;;;22.90;99.90;;;;;;4865073;29;20029;-87
2023/09/16 05:25:24;;;;;;;22.23;15.65;;;23.10;99.90;;;;;;4865393;29;20036;-87
2023/09/16 05:27:51;;;;;;;23.50;17.33;;;23.40;99.90;;;;;;4865422;29;20033;-88
2023/09/16 05:30:21;;;;;;;20.77;15.93;;;23.70;99.90;;;;;;4864922;29;20029;-88
2023/09/16 05:32:47;;;;;;;24.40;16.35;;;23.90;99.90;;;;;;4864879;29;20112;-89
2023/09/16 05:35:14;;;;;;;20.50;16.42;;;24.10;99.90;;;;;;4864828;29;20041;-89
2023/09/16 05:37:40;;;;;;;24.77;18.77;;;24.60;99.90;;;;;;4864944;29;20029;-90
2023/09/16 05:40:11;;;;;;;24.77;17.73;;;24.80;99.90;;;;;;4865639;29;20036;-76
2023/09/16 05:42:38;;;;;;;17.98;16.40;;;25.20;99.90;;;;;;4862998;29;20030;-77
2023/09/16 05:45:05;;;;;;;19.08;17.38;;;25.50;99.90;;;;;;4864437;29;20029;-74
2023/09/16 05:47:32;;;;;;;20.13;18.38;;;26.10;99.90;;;;;;4878235;29;20060;-74
2023/09/16 06:19:41;;;;;;;20.60;18.83;;;27.80;99.90;;;;;;5200031;23;20056;-90
2023/09/16 06:22:09;;;;;;;20.83;19.08;;;28.20;99.90;;;;;;4864485;29;20040;-90
2023/09/16 06:24:36;;;;;;;21.00;19.40;;;28.00;99.90;;;;;;4848872;29;20033;-90
2023/09/16 06:27:04;;;;;;;19.80;18.20;;;27.90;99.90;;;;;;4864599;29;20037;-89
2023/09/16 06:29:30;;;;;;;22.05;20.00;;;27.80;99.90;;;;;;4837906;29;20539;-90
2023/09/16 06:32:01;;;;;;;23.08;19.63;;;27.50;99.90;;;;;;4845640;29;20089;-90
2023/09/16 06:34:27;;;;;;;20.63;19.00;;;27.40;99.90;;;;;;4845544;29;20093;-90
2023/09/16 06:36:54;;;;;;;21.70;20.00;;;27.30;99.90;;;;;;4830682;29;20550;-90
2023/09/16 06:39:21;;;;;;;21.00;19.45;;;27.40;99.90;;;;;;4845586;29;20110;-91
2023/09/16 06:41:49;;;;;;;22.75;20.85;;;27.60;99.90;;;;;;4830934;29;20082;-79
2023/09/16 07:28:46;;;;;;;28.83;26.35;;;28.60;99.90;;;;;;5051166;23;20064;-84
2023/09/16 07:31:12;;;;;;;28.67;26.30;;;28.60;99.90;;;;;;4884098;29;20111;-83
2023/09/16 07:33:38;;;;;;;28.50;26.33;;;28.50;99.90;;;;;;4884071;29;20039;-83
2023/09/16 07:36:05;;;;;;;28.52;26.13;;;28.90;99.90;;;;;;4884209;29;20072;-84
2023/09/16 07:38:31;;;;;;;27.48;25.58;;;28.90;99.90;;;;;;4880735;29;20506;-85
2023/09/16 07:40:57;;;;;;;27.38;25.38;;;28.90;99.90;;;;;;4865596;29;20041;-84
2023/09/16 07:43:24;;;;;;;28.95;26.55;;;28.90;99.90;;;;;;4865384;29;20387;-84
2023/09/16 07:45:51;;;;;;;28.27;25.95;;;29.20;99.90;;;;;;4880603;29;20044;-84
2023/09/16 07:48:18;;;;;;;28.23;26.00;;;29.40;99.90;;;;;;4877373;29;20432;-84
2023/09/16 07:50:45;;;;;;;30.00;27.70;;;29.40;99.90;;;;;;4861999;29;20124;-83
2023/09/16 07:53:11;;;;;;;28.25;26.25;;;29.60;99.90;;;;;;4862303;29;20052;-83
2023/09/16 07:55:39;;;;;;;28.15;26.15;;;29.40;99.90;;;;;;4866478;29;20099;-83
2023/09/16 07:58:05;;;;;;;28.20;26.25;;;29.40;99.90;;;;;;4886531;29;20083;-83
2023/09/16 08:00:31;;;;;;;27.98;26.00;;;29.40;99.90;;;;;;4880458;29;20412;-83
2023/09/16 08:02:57;;;;;;;28.65;26.52;;;29.40;99.90;;;;;;4880608;29;20115;-84
2023/09/16 08:05:24;;;;;;;28.13;26.02;;;29.40;99.90;;;;;;4883112;29;20039;-83
2023/09/16 08:07:50;;;;;;;28.55;26.40;;;29.60;99.90;;;;;;4883975;29;20027;-83
2023/09/16 08:10:16;;;;;;;29.10;27.10;;;29.80;99.90;;;;;;4899810;29;20391;-83
2023/09/16 08:12:42;;;;;;;28.45;26.40;;;29.70;99.90;;;;;;4884409;29;20032;-83
2023/09/16 08:15:09;;;;;;;28.70;26.70;;;29.60;99.90;;;;;;4897863;29;20131;-83
2023/09/16 08:17:39;;;;;;;30.00;27.60;;;29.60;99.90;;;;;;4887329;29;20025;-83
2023/09/16 08:20:07;;;;;;;29.73;27.45;;;29.80;99.90;;;;;;4884067;29;20033;-83
2023/09/16 08:22:33;;;;;;;30.17;27.73;;;29.90;99.90;;;;;;4901082;29;20423;-84
2023/09/16 08:24:59;;;;;;;29.52;27.33;;;30.20;99.90;;;;;;4883772;29;20459;-83
2023/09/16 08:27:28;;;;;;;29.63;27.38;;;30.30;99.90;;;;;;4900411;29;20044;-83
2023/09/16 08:29:55;;;;;;;28.95;26.55;;;30.60;99.90;;;;;;4883765;29;20124;-84
2023/09/16 08:32:28;;;;;;;28.88;26.67;;;30.20;99.90;;;;;;4900774;29;20052;-84
2023/09/16 08:34:55;;;;;;;28.90;26.67;;;30.20;99.90;;;;;;4883699;29;20032;-83
2023/09/16 08:37:21;;;;;;;30.13;27.85;;;30.20;99.90;;;;;;4882064;29;20098;-82
2023/09/16 08:39:48;;;;;;;29.38;27.27;;;29.70;99.90;;;;;;4881821;29;20036;-82
2023/09/16 08:42:33;;;;;;;29.42;27.30;;;29.90;99.90;;;;;;4882096;29;20076;-87
2023/09/16 08:45:13;;;;;;;29.10;27.13;;;29.80;99.90;;;;;;4881120;29;20029;-87
2023/09/16 08:47:49;;;;;;;29.55;27.27;;;30.00;99.90;;;;;;4886330;29;20119;-87
2023/09/16 08:50:17;;;;;;;30.60;28.00;;;30.40;99.90;;;;;;4870578;29;20108;-88
2023/09/16 08:52:52;;;;;;;27.55;25.65;;;30.10;99.90;;;;;;4881363;29;20128;-87
2023/09/16 08:55:19;;;;;;;27.85;25.95;;;30.00;99.90;;;;;;4865868;29;20045;-85
2023/09/16 10:46:39;;;;;;;28.67;26.55;;;30.00;99.90;;;;;;5640113;23;20052;-89
2023/09/16 10:49:05;;;;;;;28.98;26.95;;;29.70;99.90;;;;;;4880678;29;20036;-88
2023/09/16 10:51:42;;;;;;;29.15;27.20;;;29.70;99.90;;;;;;4845928;29;20032;-90
2023/09/16 10:54:30;;;;;;;28.98;26.92;;;30.10;99.90;;;;;;4867560;29;20039;-85
2023/09/16 10:56:59;;;;;;;28.40;26.58;;;30.00;99.90;;;;;;4863855;29;20048;-89
2023/09/16 10:59:29;;;;;;;29.48;27.40;;;29.70;99.90;;;;;;4879865;29;20033;-87
2023/09/16 11:02:01;;;;;;;30.02;27.80;;;29.90;99.90;;;;;;4879275;29;20033;-86
2023/09/16 11:04:27;;;;;;;29.30;26.98;;;29.90;99.90;;;;;;4879043;29;20488;-85
2023/09/16 11:06:54;;;;;;;28.85;26.63;;;30.00;99.90;;;;;;4878242;29;20021;-84
2023/09/16 11:09:22;;;;;;;28.63;26.60;;;29.90;99.90;;;;;;4878534;29;20025;-81
2023/09/16 11:11:52;;;;;;;28.42;26.23;;;30.00;99.90;;;;;;4918338;23;20055;-93
2023/09/16 11:14:21;;;;;;;29.60;27.45;;;30.20;99.90;;;;;;4889279;29;20024;-87
2023/09/16 11:16:52;;;;;;;29.20;27.25;;;30.40;99.90;;;;;;4899975;29;20034;-89
2023/09/16 13:23:24;;;;;;;29.17;26.77;;;29.70;99.90;;;;;;5622720;23;19936;-81
2023/09/16 13:25:54;;;;;;;29.45;27.25;;;29.70;99.90;;;;;;4881119;29;20401;-80
2023/09/16 13:28:23;;;;;;;29.75;27.42;;;29.60;99.90;;;;;;4881332;29;20050;-78
2023/09/16 13:31:08;;;;;;;29.45;27.45;;;29.60;99.90;;;;;;4881511;29;20033;-79
2023/09/16 13:34:04;;;;;;;29.10;26.73;;;29.70;99.90;;;;;;4859036;29;20085;-79
2023/09/16 13:36:32;;;;;;;29.38;27.05;;;29.60;99.90;;;;;;4845982;29;20041;-81
2023/09/16 13:39:00;;;;;;;28.85;26.77;;;29.60;99.90;;;;;;4862439;29;20037;-81
2023/09/16 13:41:27;;;;;;;28.80;26.70;;;29.50;99.90;;;;;;4862093;29;20062;-80
2023/09/16 13:43:53;;;;;;;27.70;25.70;;;29.40;99.90;;;;;;4827193;29;20117;-80
2023/09/16 13:46:19;;;;;;;28.75;26.67;;;29.60;99.90;;;;;;4857864;29;20164;-80
2023/09/16 13:48:47;;;;;;;28.48;26.15;;;29.40;99.90;;;;;;4862342;29;20483;-81
2023/09/16 13:51:17;;;;;;;27.75;25.95;;;29.40;99.90;;;;;;4845742;29;20039;-82
2023/09/16 13:53:44;;;;;;;28.40;26.50;;;29.20;99.90;;;;;;4845499;29;20064;-81
2023/09/16 13:56:16;;;;;;;29.30;26.88;;;29.60;99.90;;;;;;4845567;29;20041;-81
2023/09/16 13:58:42;;;;;;;28.65;26.65;;;29.40;99.90;;;;;;4845475;29;20029;-81
2023/09/16 14:01:08;;;;;;;27.88;25.95;;;29.50;99.90;;;;;;4845290;29;20066;-81
2023/09/16 14:03:38;;;;;;;29.20;27.00;;;29.40;99.90;;;;;;4861380;29;20052;-81
2023/09/16 14:06:04;;;;;;;29.75;27.17;;;29.20;99.90;;;;;;4845466;29;20090;-81
2023/09/16 14:08:31;;;;;;;28.05;26.15;;;29.10;99.90;;;;;;4861940;29;20057;-80
2023/09/16 14:10:57;;;;;;;27.90;25.90;;;29.00;99.90;;;;;;4845392;29;20531;-80
2023/09/16 14:13:23;;;;;;;27.92;25.65;;;28.70;99.90;;;;;;4861724;29;20030;-80
2023/09/16 14:15:50;;;;;;;28.70;26.80;;;28.70;99.90;;;;;;4845224;29;20042;-80
2023/09/16 14:18:16;;;;;;;28.67;26.77;;;28.60;99.90;;;;;;4845117;29;20440;-81
2023/09/16 14:20:42;;;;;;;28.42;26.17;;;28.40;99.90;;;;;;4861190;29;20024;-80
2023/09/16 14:23:09;;;;;;;27.70;25.80;;;28.40;99.90;;;;;;4861282;29;20033;-80
2023/09/16 14:25:35;;;;;;;29.05;26.63;;;28.50;99.90;;;;;;4861655;29;20529;-81
2023/09/16 14:28:03;;;;;;;29.10;26.92;;;28.50;99.90;;;;;;4861572;29;20029;-80
2023/09/16 14:30:31;;;;;;;28.33;26.27;;;28.50;99.90;;;;;;4861432;29;20041;-80
2023/09/16 14:32:58;;;;;;;27.58;25.67;;;28.60;99.90;;;;;;4861435;29;20394;-79
2023/09/16 14:35:24;;;;;;;27.13;25.02;;;28.50;99.90;;;;;;4861338;29;20468;-79
2023/09/16 14:37:53;;;;;;;27.45;25.42;;;28.30;99.90;;;;;;4844855;29;20407;-80
2023/09/16 14:40:20;;;;;;;27.42;25.40;;;28.40;99.90;;;;;;4861431;29;20028;-79
2023/09/16 14:42:47;;;;;;;27.67;25.58;;;28.40;99.90;;;;;;4861363;29;20041;-79
2023/09/16 14:45:13;;;;;;;26.98;24.98;;;28.50;99.90;;;;;;4861118;29;20468;-78
2023/09/16 14:47:42;;;;;;;26.70;24.70;;;28.40;99.90;;;;;;4860973;29;20033;-80
2023/09/16 14:50:09;;;;;;;26.27;24.48;;;28.10;99.90;;;;;;4844544;29;20125;-79
2023/09/16 14:52:35;;;;;;;27.27;25.15;;;28.10;99.90;;;;;;4861149;29;20085;-79
2023/09/16 14:55:08;;;;;;;27.83;25.92;;;28.10;99.90;;;;;;4860945;29;20030;-79
2023/09/16 14:57:36;;;;;;;27.88;25.90;;;28.00;99.90;;;;;;4861150;29;20105;-80
2023/09/16 15:00:05;;;;;;;26.40;24.60;;;28.10;99.90;;;;;;4861222;29;20084;-80
2023/09/16 15:02:31;;;;;;;26.98;25.15;;;28.20;99.90;;;;;;4844567;29;20051;-81
2023/09/16 15:04:58;;;;;;;26.77;24.80;;;28.10;99.90;;;;;;4845209;29;20029;-78
2023/09/16 18:05:11;;;;;;;18.80;17.50;;;24.60;99.90;;;;;;5758392;23;20640;-78
2023/09/16 18:07:39;;;;;;;18.65;17.15;;;24.60;99.90;;;;;;4882576;29;20033;-77
2023/09/16 18:10:07;;;;;;;18.98;17.13;;;24.50;99.90;;;;;;4899138;29;20398;-78
2023/09/16 18:12:34;;;;;;;18.42;16.80;;;24.50;99.90;;;;;;4898965;29;20394;-77
2023/09/16 18:15:00;;;;;;;18.33;16.40;;;24.60;99.90;;;;;;4897767;29;20036;-77
2023/09/16 18:17:28;;;;;;;17.95;16.38;;;24.50;99.90;;;;;;4863716;29;20108;-79
2023/09/16 18:19:55;;;;;;;17.42;16.08;;;24.50;99.90;;;;;;4880248;29;20051;-81
2023/09/16 18:22:22;;;;;;;17.45;16.10;;;24.40;99.90;;;;;;4860440;29;20104;-79
2023/09/16 18:24:49;;;;;;;18.15;16.63;;;24.50;99.90;;;;;;4863363;29;20029;-79
2023/09/16 18:27:17;;;;;;;17.48;15.88;;;24.50;99.90;;;;;;4880056;29;20100;-78
2023/09/16 18:29:44;;;;;;;18.40;16.65;;;24.40;99.90;;;;;;4880141;29;20483;-77
2023/09/16 18:32:13;;;;;;;17.55;16.02;;;24.40;99.90;;;;;;4880084;29;20056;-77
2023/09/16 18:34:41;;;;;;;17.73;16.15;;;24.30;99.90;;;;;;4879972;29;20025;-79
2023/09/16 18:37:08;;;;;;;16.90;15.50;;;24.40;99.90;;;;;;4879845;29;20045;-79
2023/09/16 18:39:36;;;;;;;16.48;15.18;;;24.40;99.90;;;;;;4879859;29;20064;-80
2023/09/16 18:42:05;;;;;;;16.85;15.45;;;24.30;99.90;;;;;;4863597;29;20390;-78
2023/09/16 18:44:32;;;;;;;17.02;15.30;;;24.30;99.90;;;;;;4879998;29;20021;-78
2023/09/16 18:47:00;;;;;;;16.33;14.68;;;24.30;99.90;;;;;;4863049;29;20059;-78
2023/09/16 18:49:30;;;;;;;16.23;14.82;;;24.20;99.90;;;;;;4879374;29;20029;-78
2023/09/16 18:51:58;;;;;;;15.90;14.70;;;24.20;99.90;;;;;;4879966;29;20678;-84
2023/09/16 18:54:25;;;;;;;16.67;15.00;;;24.20;99.90;;;;;;4862979;29;20033;-82
2023/09/16 18:56:53;;;;;;;16.30;14.80;;;24.20;99.90;;;;;;4862922;29;20041;-81
2023/09/16 18:59:20;;;;;;;19.88;14.65;;;24.10;99.90;;;;;;4880428;29;20153;-87
2023/09/16 19:01:47;;;;;;;16.95;15.35;;;24.10;99.90;;;;;;4848544;29;20052;-85
2023/09/16 19:04:15;;;;;;;16.13;14.43;;;24.10;99.90;;;;;;4848727;29;20060;-86
2023/09/16 19:06:43;;;;;;;16.02;14.35;;;24.10;99.90;;;;;;4855390;29;20072;-86
2023/09/16 19:09:13;;;;;;;14.90;13.68;;;24.10;99.90;;;;;;4860826;29;20044;-84
2023/09/16 19:11:42;;;;;;;14.45;13.35;;;24.00;99.90;;;;;;4860821;29;20033;-86
2023/09/16 19:14:10;;;;;;;15.45;13.90;;;24.00;99.90;;;;;;4860399;29;20025;-85
2023/09/16 19:16:38;;;;;;;14.43;13.25;;;24.00;99.90;;;;;;4860497;29;20053;-85
2023/09/16 19:19:04;;;;;;;15.55;14.25;;;24.00;99.90;;;;;;4859996;29;20034;-84
2023/09/16 19:21:31;;;;;;;14.85;13.43;;;24.00;99.90;;;;;;4860439;29;20040;-83
2023/09/16 19:23:58;;;;;;;14.75;13.55;;;24.00;99.90;;;;;;4859774;29;20097;-83
2023/09/16 19:26:25;;;;;;;14.73;13.63;;;24.00;99.90;;;;;;4871879;29;20033;-83
2023/09/16 19:28:51;;;;;;;14.73;13.43;;;24.00;99.90;;;;;;4863098;29;20021;-84
2023/09/16 19:31:17;;;;;;;21.77;18.20;;;23.90;99.90;;;;;;4862286;29;20131;-80
2023/09/16 19:33:44;;;;;;;18.77;15.60;;;24.00;99.90;;;;;;4862413;29;20246;-80
2023/09/16 19:36:10;;;;;;;149.77;92.38;;;24.00;99.90;;;;;;4834191;29;20046;-81
2023/09/16 19:38:37;;;;;;;16.48;14.70;;;24.00;99.90;;;;;;4860587;29;20476;-82
2023/09/16 19:41:04;;;;;;;15.95;14.40;;;24.10;99.90;;;;;;4860533;29;20036;-82
2023/09/16 19:43:31;;;;;;;15.70;14.07;;;24.00;99.90;;;;;;4859431;29;20032;-83
2023/09/16 19:46:03;;;;;;;15.35;13.85;;;24.00;99.90;;;;;;4862754;29;20530;-83
2023/09/16 19:48:30;;;;;;;14.93;13.32;;;24.00;99.90;;;;;;4862401;29;20514;-82
2023/09/16 19:50:56;;;;;;;14.80;13.60;;;24.00;99.90;;;;;;4844448;29;20114;-82
2023/09/16 19:53:23;;;;;;;14.30;12.93;;;24.00;99.90;;;;;;4875881;29;20017;-83
2023/09/16 19:55:55;;;;;;;14.18;12.88;;;23.90;99.90;;;;;;4846307;29;20033;-83
2023/09/16 19:58:29;;;;;;;15.52;13.82;;;23.90;99.90;;;;;;4847542;29;20595;-83
2023/09/16 20:01:21;;;;;;;14.73;13.52;;;23.90;99.90;;;;;;4848640;29;20123;-83
2023/09/16 20:04:35;;;;;;;14.10;12.95;;;23.80;99.90;;;;;;4869717;29;20440;-86
2023/09/16 20:07:09;;;;;;;14.52;12.90;;;23.80;99.90;;;;;;4862494;29;20053;-84
2023/09/16 20:09:40;;;;;;;14.98;12.73;;;23.80;99.90;;;;;;4862691;29;20495;-85
2023/09/16 20:12:12;;;;;;;14.00;12.75;;;23.80;99.90;;;;;;4862512;29;20026;-80
2023/09/16 20:14:40;;;;;;;14.98;13.48;;;23.70;99.90;;;;;;4862981;29;20511;-83
2023/09/16 20:17:06;;;;;;;13.85;12.43;;;23.70;99.90;;;;;;4852477;29;20551;-83
2023/09/16 20:19:33;;;;;;;14.15;12.90;;;23.70;99.90;;;;;;4861277;29;20129;-83
2023/09/16 20:22:02;;;;;;;14.85;13.30;;;23.70;99.90;;;;;;4862884;29;20030;-83
2023/09/16 20:24:32;;;;;;;13.73;12.40;;;23.70;99.90;;;;;;4863891;29;20033;-84
2023/09/16 20:27:00;;;;;;;14.10;12.70;;;23.70;99.90;;;;;;4862350;29;20395;-82
2023/09/16 20:29:27;;;;;;;14.48;13.00;;;23.70;99.90;;;;;;4863748;29;20056;-84
2023/09/16 20:31:53;;;;;;;13.52;12.23;;;23.60;99.90;;;;;;4847262;29;20026;-82
2023/09/16 20:34:19;;;;;;;16.48;13.60;;;23.60;99.90;;;;;;4863905;29;20033;-82
2023/09/16 20:36:46;;;;;;;13.98;12.68;;;23.50;99.90;;;;;;4863216;29;20029;-83